createdAt,value
2023-05-05T00:02:19.019Z,45.35
2023-05-05T00:04:49.575Z,45.01
2023-05-05T00:07:19.855Z,43.82
2023-05-05T00:09:50.335Z,43.97
2023-05-05T00:12:20.865Z,43.94
2023-05-05T00:14:53.849Z,44.19
2023-05-05T00:17:26.586Z,44.96
2023-05-05T00:19:57.190Z,45.83
2023-05-05T00:22:27.477Z,46.45
2023-05-05T00:24:58.078Z,47.39
2023-05-05T00:27:28.340Z,47.92
2023-05-05T00:30:01.477Z,48.14
2023-05-05T00:32:32.994Z,48.82
2023-05-05T00:35:03.500Z,49.27
2023-05-05T00:37:33.738Z,49.26
2023-05-05T00:40:12.054Z,49.55
2023-05-05T00:42:44.418Z,50.03
2023-05-05T00:45:19.051Z,50.72
2023-05-05T00:47:51.616Z,50.82
2023-05-05T00:50:26.669Z,51.17
2023-05-05T00:52:59.361Z,51.55
2023-05-05T00:55:34.447Z,52.33
2023-05-05T00:58:05.941Z,53.48
2023-05-05T01:00:38.896Z,53.75
2023-05-05T01:03:09.432Z,54.33
2023-05-05T01:05:51.623Z,55.24
2023-05-05T01:08:37.892Z,54.97
2023-05-05T01:11:17.406Z,55.51
2023-05-05T01:13:55.658Z,55.75
2023-05-05T01:16:32.761Z,56.12
2023-05-05T01:19:23.092Z,56.42
2023-05-05T01:22:00.817Z,56.79
2023-05-05T01:24:54.599Z,56.66
2023-05-05T01:28:08.914Z,56.68
2023-05-05T01:31:07.620Z,56.81
2023-05-05T01:33:47.591Z,57.14
2023-05-05T01:36:25.545Z,57.35
2023-05-05T01:39:03.756Z,57.58
2023-05-05T01:41:41.507Z,58.04
2023-05-05T01:44:14.630Z,58.08
2023-05-05T01:46:44.928Z,58.63
2023-05-05T01:49:21.207Z,58.65
2023-05-05T01:51:52.958Z,59.44
2023-05-05T01:54:24.441Z,59.67
2023-05-05T01:56:57.590Z,59.53
2023-05-05T01:59:29.396Z,60.04
2023-05-05T02:02:02.331Z,60.06
2023-05-05T02:04:39.255Z,60.30
2023-05-05T02:07:13.831Z,60.38
2023-05-05T02:09:47.880Z,59.97
2023-05-05T02:12:21.080Z,60.24
2023-05-05T02:14:54.161Z,60.39
2023-05-05T02:17:26.339Z,60.58
2023-05-05T02:20:07.709Z,60.87
2023-05-05T02:22:38.422Z,60.48
2023-05-05T02:25:10.312Z,60.83
2023-05-05T02:27:44.890Z,61.17
2023-05-05T02:30:18.924Z,61.32
2023-05-05T02:32:51.739Z,61.80
2023-05-05T02:35:27.407Z,61.46
2023-05-05T02:38:02.944Z,62.48
2023-05-05T02:40:37.776Z,62.36
2023-05-05T02:43:14.349Z,62.68
2023-05-05T02:45:45.089Z,62.56
2023-05-05T02:48:16.212Z,62.60
2023-05-05T02:50:53.659Z,62.63
2023-05-05T02:53:29.175Z,62.29
2023-05-05T02:56:08.071Z,62.42
2023-05-05T02:58:46.378Z,62.76
2023-05-05T03:01:29.940Z,62.68
2023-05-05T03:04:07.862Z,62.34
2023-05-05T03:06:45.590Z,63.04
2023-05-05T03:09:24.559Z,63.15
2023-05-05T03:12:02.590Z,63.25
2023-05-05T03:14:38.727Z,63.29
2023-05-05T03:17:12.780Z,63.42
2023-05-05T03:19:45.419Z,63.19
2023-05-05T03:22:31.807Z,62.45
2023-05-05T03:25:02.384Z,62.01
2023-05-05T03:27:35.727Z,62.11
2023-05-05T03:30:07.600Z,60.90
2023-05-05T03:32:38.397Z,60.08
2023-05-05T03:35:12.192Z,59.96
2023-05-05T03:37:45.082Z,59.81
2023-05-05T03:40:16.290Z,59.59
2023-05-05T03:42:46.715Z,58.88
2023-05-05T03:45:17.352Z,59.36
2023-05-05T03:47:49.828Z,59.25
2023-05-05T03:50:20.243Z,59.11
2023-05-05T03:52:53.448Z,58.90
2023-05-05T03:55:25.094Z,59.26
2023-05-05T03:57:58.288Z,59.57
2023-05-05T04:00:28.588Z,59.36
2023-05-05T04:02:59.195Z,59.22
2023-05-05T04:05:29.525Z,59.57
2023-05-05T04:08:03.527Z,59.32
2023-05-05T04:10:34.338Z,59.04
2023-05-05T04:13:05.151Z,59.04
2023-05-05T04:15:38.290Z,58.53
2023-05-05T04:18:08.707Z,58.34
2023-05-05T04:20:40.745Z,58.43
2023-05-05T04:23:13.625Z,58.04
2023-05-05T04:25:44.291Z,57.57
2023-05-05T04:28:14.929Z,57.43
2023-05-05T04:30:47.554Z,56.66
2023-05-05T04:33:18.626Z,55.97
2023-05-05T04:35:48.845Z,55.54
2023-05-05T04:38:22.406Z,55.84
2023-05-05T04:40:52.764Z,54.19
2023-05-05T04:43:23.098Z,54.20
2023-05-05T04:45:59.384Z,50.83
2023-05-05T04:48:31.200Z,46.66
2023-05-05T04:51:07.084Z,44.67
2023-05-05T04:53:39.977Z,42.17
2023-05-05T04:56:10.466Z,41.00
2023-05-05T04:58:42.987Z,39.56
2023-05-05T05:01:13.537Z,37.45
2023-05-05T05:03:51.941Z,37.09
2023-05-05T05:06:24.779Z,35.72
2023-05-05T05:08:58.071Z,34.57
2023-05-05T05:11:28.418Z,33.88
2023-05-05T05:13:58.685Z,32.95
2023-05-05T05:16:32.321Z,34.10
2023-05-05T05:19:02.876Z,33.39
2023-05-05T05:21:33.084Z,33.08
2023-05-05T05:24:11.803Z,32.14
2023-05-05T05:26:42.603Z,31.96
2023-05-05T05:29:13.131Z,31.21
2023-05-05T05:31:43.558Z,30.72
2023-05-05T05:34:14.042Z,31.17
2023-05-05T05:36:44.249Z,31.47
2023-05-05T05:39:17.385Z,31.72
2023-05-05T05:41:47.715Z,31.50
2023-05-05T05:44:21.017Z,31.38
2023-05-05T05:46:56.512Z,31.37
2023-05-05T05:49:33.910Z,30.57
2023-05-05T05:52:07.246Z,30.28
2023-05-05T05:54:40.434Z,30.85
2023-05-05T05:57:10.737Z,31.34
2023-05-05T05:59:41.014Z,31.67
2023-05-05T06:02:11.281Z,32.14
2023-05-05T06:04:42.768Z,31.72
2023-05-05T06:07:18.675Z,30.91
2023-05-05T06:09:51.685Z,30.88
2023-05-05T06:12:22.000Z,32.02
2023-05-05T06:14:52.234Z,30.70
2023-05-05T06:17:23.696Z,31.59
2023-05-05T06:19:54.578Z,31.71
2023-05-05T06:22:25.077Z,31.95
2023-05-05T06:25:01.041Z,31.92
2023-05-05T06:27:31.444Z,32.06
2023-05-05T06:30:01.644Z,33.42
2023-05-05T06:32:31.962Z,34.16
2023-05-05T06:35:02.612Z,34.21
2023-05-05T06:37:35.056Z,34.42
2023-05-05T06:40:10.729Z,34.25
2023-05-05T06:42:41.632Z,34.46
2023-05-05T06:45:13.703Z,33.29
2023-05-05T06:47:46.340Z,32.12
2023-05-05T06:50:26.695Z,32.06
2023-05-05T06:52:57.032Z,31.66
2023-05-05T06:55:30.258Z,32.91
2023-05-05T06:58:01.154Z,29.96
2023-05-05T07:00:31.549Z,30.57
2023-05-05T07:03:07.324Z,31.63
2023-05-05T07:05:38.047Z,31.74
2023-05-05T07:08:12.072Z,31.00
2023-05-05T07:10:45.181Z,31.59
2023-05-05T07:13:15.585Z,31.55
2023-05-05T07:15:46.833Z,32.53
2023-05-05T07:18:17.362Z,32.04
2023-05-05T07:20:47.758Z,31.84
2023-05-05T07:23:20.436Z,32.44
2023-05-05T07:25:53.627Z,32.31
2023-05-05T07:28:24.932Z,32.50
2023-05-05T07:30:58.049Z,32.69
2023-05-05T07:33:28.569Z,33.43
2023-05-05T07:36:04.763Z,32.93
2023-05-05T07:38:35.378Z,32.81
2023-05-05T07:41:09.205Z,31.87
2023-05-05T07:43:42.350Z,31.02
2023-05-05T07:46:14.494Z,31.42
2023-05-05T07:48:47.649Z,30.84
2023-05-05T07:51:17.933Z,30.46
2023-05-05T07:53:50.390Z,31.07
2023-05-05T07:56:25.961Z,30.54
2023-05-05T07:58:56.420Z,30.50
2023-05-05T08:01:26.834Z,29.94
2023-05-05T08:03:59.978Z,30.46
2023-05-05T08:09:03.690Z,30.75
2023-05-05T08:11:38.688Z,29.96
2023-05-05T08:14:09.914Z,30.04
2023-05-05T08:16:40.205Z,30.46
2023-05-05T08:19:21.518Z,29.70
2023-05-05T08:22:01.559Z,29.84
2023-05-05T08:24:35.170Z,30.28
2023-05-05T08:27:14.160Z,29.96
2023-05-05T08:29:44.536Z,29.61
2023-05-05T08:32:16.463Z,29.74
2023-05-05T08:34:47.003Z,29.85
2023-05-05T08:37:19.124Z,30.89
2023-05-05T08:39:52.594Z,29.59
2023-05-05T08:42:36.280Z,30.76
2023-05-05T08:45:14.653Z,30.03
2023-05-05T08:47:45.316Z,30.60
2023-05-05T08:50:22.201Z,29.53
2023-05-05T08:52:56.788Z,29.37
2023-05-05T08:55:28.634Z,29.76
2023-05-05T08:58:03.717Z,29.97
2023-05-05T09:00:34.428Z,30.10
2023-05-05T09:03:09.825Z,30.74
2023-05-05T09:05:42.120Z,30.23
2023-05-05T09:08:14.390Z,29.17
2023-05-05T09:10:45.452Z,30.64
2023-05-05T09:13:18.529Z,30.44
2023-05-05T09:15:51.741Z,31.32
2023-05-05T09:18:22.238Z,30.57
2023-05-05T09:20:52.505Z,30.31
2023-05-05T09:23:23.966Z,29.84
2023-05-05T09:26:11.618Z,30.14
2023-05-05T09:28:55.751Z,31.64
2023-05-05T09:31:31.155Z,30.69
2023-05-05T09:34:02.133Z,30.92
2023-05-05T09:36:48.089Z,31.47
2023-05-05T09:39:21.674Z,30.45
2023-05-05T09:41:52.362Z,30.31
2023-05-05T09:44:36.856Z,30.70
2023-05-05T09:47:21.946Z,31.20
2023-05-05T09:50:02.475Z,30.37
2023-05-05T09:52:34.552Z,30.74
2023-05-05T09:55:12.281Z,30.37
2023-05-05T09:57:42.737Z,30.85
2023-05-05T10:00:24.769Z,30.15
2023-05-05T10:02:55.192Z,31.06
2023-05-05T10:05:29.478Z,30.15
2023-05-05T10:08:15.464Z,32.43
2023-05-05T10:10:53.781Z,31.30
2023-05-05T10:13:25.319Z,32.07
2023-05-05T10:16:00.377Z,34.33
2023-05-05T10:18:31.999Z,31.21
2023-05-05T10:21:03.948Z,31.05
2023-05-05T10:23:42.224Z,32.09
2023-05-05T10:26:14.851Z,31.62
2023-05-05T10:28:48.853Z,31.32
2023-05-05T10:31:32.377Z,30.80
2023-05-05T10:34:07.073Z,31.20
2023-05-05T10:36:38.031Z,32.10
2023-05-05T10:39:11.010Z,32.83
2023-05-05T10:41:41.718Z,31.24
2023-05-05T10:44:13.133Z,31.05
2023-05-05T10:46:46.658Z,30.72
2023-05-05T10:49:21.342Z,31.27
2023-05-05T10:52:08.107Z,31.89
2023-05-05T10:54:46.324Z,31.98
2023-05-05T10:57:19.469Z,31.95
2023-05-05T10:59:49.731Z,31.44
2023-05-05T11:02:28.322Z,32.52
2023-05-05T11:05:18.346Z,32.13
2023-05-05T11:07:50.257Z,32.38
2023-05-05T11:10:23.291Z,32.84
2023-05-05T11:13:21.755Z,31.62
2023-05-05T11:15:54.425Z,32.30
2023-05-05T11:18:36.931Z,31.89
2023-05-05T11:21:15.874Z,31.59
2023-05-05T11:23:53.618Z,32.17
2023-05-05T11:26:54.494Z,31.17
2023-05-05T11:29:24.827Z,31.37
2023-05-05T11:32:16.450Z,31.59
2023-05-05T11:34:55.397Z,31.44
2023-05-05T11:37:26.881Z,32.41
2023-05-05T11:40:07.278Z,32.56
2023-05-05T11:42:37.955Z,32.66
2023-05-05T11:45:25.081Z,32.38
2023-05-05T11:47:55.581Z,31.95
2023-05-05T11:50:28.577Z,31.32
2023-05-05T11:52:59.227Z,32.37
2023-05-05T11:55:30.858Z,31.03
2023-05-05T11:58:01.211Z,30.80
2023-05-05T12:00:37.024Z,31.12
2023-05-05T12:03:09.094Z,32.92
2023-05-05T12:05:45.237Z,32.52
2023-05-05T12:08:17.827Z,32.27
2023-05-05T12:10:48.193Z,32.67
2023-05-05T12:13:22.227Z,33.24
2023-05-05T12:15:52.519Z,32.36
2023-05-05T12:18:23.148Z,32.70
2023-05-05T12:20:59.396Z,31.80
2023-05-05T12:23:30.415Z,31.97
2023-05-05T12:26:00.672Z,31.90
2023-05-05T12:28:46.819Z,31.84
2023-05-05T12:31:17.202Z,32.81
2023-05-05T12:33:48.325Z,33.33
2023-05-05T12:36:21.563Z,33.35
2023-05-05T12:38:52.786Z,33.83
2023-05-05T12:41:23.606Z,33.33
2023-05-05T12:43:58.809Z,33.85
2023-05-05T12:46:29.873Z,34.84
2023-05-05T12:49:04.989Z,32.96
2023-05-05T12:51:39.555Z,33.52
2023-05-05T12:54:11.107Z,34.77
2023-05-05T12:56:42.810Z,33.20
2023-05-05T12:59:14.809Z,33.73
2023-05-05T13:01:53.035Z,32.80
2023-05-05T13:04:24.752Z,33.34
2023-05-05T13:07:11.922Z,33.38
2023-05-05T13:09:42.777Z,33.69
2023-05-05T13:12:14.738Z,34.13
2023-05-05T13:14:48.138Z,33.34
2023-05-05T13:17:18.470Z,33.38
2023-05-05T13:19:48.995Z,32.85
2023-05-05T13:22:26.431Z,32.90
2023-05-05T13:25:00.381Z,33.43
2023-05-05T13:27:30.741Z,32.59
2023-05-05T13:30:04.484Z,34.03
2023-05-05T13:32:35.623Z,32.92
2023-05-05T13:35:06.449Z,32.66
2023-05-05T13:37:39.370Z,32.65
2023-05-05T13:40:11.545Z,32.22
2023-05-05T13:42:41.891Z,33.92
2023-05-05T13:45:14.468Z,31.54
2023-05-05T13:47:45.397Z,32.09
2023-05-05T13:50:15.740Z,32.53
2023-05-05T13:52:48.555Z,31.59
2023-05-05T13:55:19.052Z,31.84
2023-05-05T13:57:49.274Z,31.39
2023-05-05T14:00:21.338Z,31.53
2023-05-05T14:02:51.805Z,32.09
2023-05-05T14:05:22.463Z,33.66
2023-05-05T14:07:55.596Z,31.63
2023-05-05T14:10:26.780Z,32.54
2023-05-05T14:12:57.340Z,32.48
2023-05-05T14:15:28.272Z,32.04
2023-05-05T14:17:59.910Z,30.69
2023-05-05T14:20:30.482Z,32.15
2023-05-05T14:23:03.389Z,32.91
2023-05-05T14:25:33.684Z,32.21
2023-05-05T14:28:04.755Z,32.13
2023-05-05T14:30:35.034Z,32.24
2023-05-05T14:33:05.305Z,32.55
2023-05-05T14:35:35.732Z,33.89
2023-05-05T14:38:08.882Z,32.84
2023-05-05T14:40:39.152Z,32.22
2023-05-05T14:43:09.368Z,32.71
2023-05-05T14:45:39.772Z,31.45
2023-05-05T14:48:10.556Z,31.86
2023-05-05T14:50:42.751Z,32.62
2023-05-05T14:53:15.629Z,34.24
2023-05-05T14:55:45.887Z,34.10
2023-05-05T14:58:19.926Z,33.47
2023-05-05T15:00:50.247Z,32.52
2023-05-05T15:03:20.761Z,33.56
2023-05-05T15:05:51.341Z,33.20
2023-05-05T15:08:24.424Z,32.26
2023-05-05T15:10:54.819Z,32.99
2023-05-05T15:13:25.104Z,32.13
2023-05-05T15:15:55.547Z,32.86
2023-05-05T15:18:26.251Z,33.28
2023-05-05T15:21:01.004Z,33.60
2023-05-05T15:23:33.975Z,34.17
2023-05-05T15:26:04.692Z,33.86
2023-05-05T15:28:35.393Z,33.89
2023-05-05T15:31:06.537Z,34.16
2023-05-05T15:33:37.193Z,34.78
2023-05-05T15:36:08.031Z,34.29
2023-05-05T15:38:44.669Z,34.57
2023-05-05T15:41:14.931Z,34.62
2023-05-05T15:43:48.090Z,35.38
2023-05-05T15:46:21.463Z,35.20
2023-05-05T15:48:51.752Z,35.14
2023-05-05T15:51:22.413Z,35.45
2023-05-05T15:53:55.655Z,35.33
2023-05-05T15:56:27.569Z,34.38
2023-05-05T15:58:58.219Z,34.69
2023-05-05T16:01:28.671Z,34.28
2023-05-05T16:04:00.224Z,34.79
2023-05-05T16:06:30.730Z,34.99
2023-05-05T16:09:04.067Z,35.36
2023-05-05T16:11:37.461Z,35.82
2023-05-05T16:14:07.590Z,35.48
2023-05-05T16:16:37.933Z,35.81
2023-05-05T16:19:08.925Z,36.16
2023-05-05T16:21:39.843Z,36.45
2023-05-05T16:24:16.326Z,36.10
2023-05-05T16:26:46.902Z,36.34
2023-05-05T16:29:17.551Z,36.23
2023-05-05T16:31:47.939Z,36.70
2023-05-05T16:34:18.330Z,36.70
2023-05-05T16:36:49.019Z,37.06
2023-05-05T16:39:21.871Z,37.30
2023-05-05T16:41:52.622Z,37.31
2023-05-05T16:44:22.868Z,37.77
2023-05-05T16:46:56.704Z,38.12
2023-05-05T16:49:27.137Z,38.23
2023-05-05T16:51:57.530Z,38.43
2023-05-05T16:54:30.475Z,38.23
2023-05-05T16:57:00.704Z,38.46
2023-05-05T16:59:31.701Z,38.54
2023-05-05T17:02:02.251Z,38.83
2023-05-05T17:04:32.574Z,39.31
2023-05-05T17:07:02.776Z,39.81
2023-05-05T17:09:35.728Z,39.59
2023-05-05T17:12:06.945Z,40.05
2023-05-05T17:14:37.176Z,40.34
2023-05-05T17:17:07.435Z,40.74
2023-05-05T17:19:37.762Z,41.47
2023-05-05T17:22:08.251Z,41.61
2023-05-05T17:24:41.336Z,41.84
2023-05-05T17:27:11.673Z,42.64
2023-05-05T17:29:42.063Z,42.55
2023-05-05T17:32:12.549Z,42.91
2023-05-05T17:34:43.079Z,42.96
2023-05-05T17:37:13.320Z,43.82
2023-05-05T17:39:48.504Z,44.00
2023-05-05T17:42:23.108Z,44.08
2023-05-05T17:44:53.441Z,43.82
2023-05-05T17:47:24.463Z,44.78
2023-05-05T17:49:56.516Z,44.62
2023-05-05T17:52:27.256Z,44.74
2023-05-05T17:55:03.332Z,45.18
2023-05-05T17:57:33.687Z,45.29
2023-05-05T18:00:06.833Z,45.84
2023-05-05T18:02:38.510Z,46.49
2023-05-05T18:05:09.600Z,46.84
2023-05-05T18:07:40.706Z,47.75
2023-05-05T18:10:14.202Z,47.82
2023-05-05T18:12:45.765Z,48.91
2023-05-05T18:15:16.169Z,49.60
2023-05-05T18:17:51.568Z,49.87
2023-05-05T18:20:22.022Z,50.10
2023-05-05T18:22:52.464Z,50.51
2023-05-05T18:25:25.564Z,51.20
2023-05-05T18:27:55.843Z,51.29
2023-05-05T18:30:26.184Z,52.14
2023-05-05T18:32:56.559Z,52.32
2023-05-05T18:35:26.855Z,52.31
2023-05-05T18:37:57.262Z,52.92
2023-05-05T18:40:30.280Z,53.58
2023-05-05T18:43:00.812Z,53.42
2023-05-05T18:45:31.214Z,53.53
2023-05-05T18:48:02.457Z,53.65
2023-05-05T18:50:35.003Z,54.06
2023-05-05T18:53:05.332Z,54.53
2023-05-05T18:55:41.051Z,54.38
2023-05-05T18:58:13.724Z,54.58
2023-05-05T19:00:44.149Z,55.08
2023-05-05T19:03:14.742Z,55.34
2023-05-05T19:05:45.046Z,55.57
2023-05-05T19:08:15.316Z,55.75
2023-05-05T19:10:48.534Z,56.17
2023-05-05T19:13:18.907Z,55.79
2023-05-05T19:15:49.263Z,56.54
2023-05-05T19:18:19.724Z,56.59
2023-05-05T19:20:52.602Z,57.33
2023-05-05T19:23:23.140Z,57.00
2023-05-05T19:25:57.397Z,57.76
2023-05-05T19:28:27.678Z,57.39
2023-05-05T19:30:58.687Z,57.58
2023-05-05T19:33:29.084Z,58.05
2023-05-05T19:35:59.505Z,58.14
2023-05-05T19:38:29.829Z,58.22
2023-05-05T19:41:02.705Z,58.44
2023-05-05T19:43:32.985Z,58.45
2023-05-05T19:46:03.388Z,58.92
2023-05-05T19:48:34.040Z,58.77
2023-05-05T19:51:06.857Z,58.68
2023-05-05T19:53:40.309Z,58.95
2023-05-05T19:56:13.247Z,58.93
2023-05-05T19:58:57.706Z,58.94
2023-05-05T20:01:31.532Z,58.46
2023-05-05T20:04:03.775Z,59.03
2023-05-05T20:06:34.363Z,58.74
2023-05-05T20:09:10.875Z,58.57
2023-05-05T20:11:44.298Z,58.28
2023-05-05T20:14:15.623Z,58.37
2023-05-05T20:16:51.549Z,58.59
2023-05-05T20:19:24.232Z,58.36
2023-05-05T20:21:54.630Z,58.76
2023-05-05T20:24:24.956Z,58.66
2023-05-05T20:27:02.059Z,58.88
2023-05-05T20:29:32.276Z,59.13
2023-05-05T20:32:02.599Z,59.31
2023-05-05T20:34:33.058Z,59.30
2023-05-05T20:37:03.504Z,59.48
2023-05-05T20:39:33.836Z,59.45
2023-05-05T20:42:08.677Z,59.76
2023-05-05T20:44:46.109Z,59.73
2023-05-05T20:47:16.486Z,59.71
2023-05-05T20:49:49.607Z,60.10
2023-05-05T20:52:22.422Z,60.06
2023-05-05T20:54:55.614Z,59.58
2023-05-05T20:57:28.671Z,59.89
2023-05-05T20:59:59.002Z,59.93
2023-05-05T21:02:32.078Z,60.56
2023-05-05T21:05:03.166Z,60.23
2023-05-05T21:07:38.365Z,60.76
2023-05-05T21:10:10.869Z,60.55
2023-05-05T21:12:44.582Z,60.48
2023-05-05T21:15:16.942Z,60.42
2023-05-05T21:17:48.743Z,61.04
2023-05-05T21:20:19.133Z,61.02
2023-05-05T21:22:49.697Z,61.18
2023-05-05T21:25:23.855Z,61.17
2023-05-05T21:27:57.027Z,61.29
2023-05-05T21:30:27.535Z,61.17
2023-05-05T21:32:57.904Z,61.62
2023-05-05T21:35:31.350Z,61.78
2023-05-05T21:38:04.646Z,61.96
2023-05-05T21:40:52.114Z,61.99
2023-05-05T21:43:25.311Z,61.72
2023-05-05T21:46:01.528Z,61.96
2023-05-05T21:48:33.629Z,61.80
2023-05-05T21:51:04.111Z,61.70
2023-05-05T21:53:34.899Z,61.64
2023-05-05T21:56:05.628Z,62.19
2023-05-05T21:58:41.500Z,62.01
2023-05-05T22:01:11.793Z,62.52
2023-05-05T22:03:43.821Z,62.37
2023-05-05T22:06:14.996Z,62.47
2023-05-05T22:08:45.444Z,62.74
2023-05-05T22:11:19.324Z,62.97
2023-05-05T22:13:52.071Z,62.76
2023-05-05T22:16:22.411Z,62.67
2023-05-05T22:18:55.509Z,63.12
2023-05-05T22:21:27.757Z,63.23
2023-05-05T22:23:58.315Z,63.05
2023-05-05T22:26:28.652Z,63.37
2023-05-05T22:29:01.740Z,63.74
2023-05-05T22:31:32.138Z,63.54
2023-05-05T22:34:02.613Z,63.49
2023-05-05T22:36:32.925Z,63.49
2023-05-05T22:39:05.229Z,63.76
2023-05-05T22:41:38.751Z,63.71
2023-05-05T22:44:12.161Z,64.04
2023-05-05T22:46:43.501Z,63.64
2023-05-05T22:49:16.205Z,64.16
2023-05-05T22:51:48.609Z,64.30
2023-05-05T22:54:21.774Z,64.08
2023-05-05T22:56:53.245Z,64.08
2023-05-05T22:59:26.377Z,63.75
2023-05-05T23:01:56.711Z,64.12
2023-05-05T23:04:27.443Z,64.01
2023-05-05T23:06:57.813Z,64.25
2023-05-05T23:09:28.218Z,64.53
2023-05-05T23:11:58.448Z,64.36
2023-05-05T23:14:34.264Z,64.27
2023-05-05T23:17:04.608Z,64.21
2023-05-05T23:19:35.217Z,64.76
2023-05-05T23:22:07.077Z,64.39
2023-05-05T23:24:38.588Z,64.57
2023-05-05T23:27:11.937Z,64.87
2023-05-05T23:29:44.939Z,64.47
2023-05-05T23:32:16.035Z,65.33
2023-05-05T23:34:46.498Z,64.98
2023-05-05T23:37:17.246Z,64.98
2023-05-05T23:39:47.582Z,64.65
2023-05-05T23:42:18.981Z,65.10
2023-05-05T23:44:53.042Z,64.60
2023-05-05T23:47:23.842Z,64.86
2023-05-05T23:49:54.299Z,65.14
2023-05-05T23:52:25.165Z,65.38
2023-05-05T23:54:55.591Z,65.30
2023-05-05T23:57:25.805Z,65.80
